createdAt,value
2019-03-18T00:00:32.861Z,79.23
2019-03-18T00:01:32.852Z,79.33
2019-03-18T00:02:32.841Z,79.47
2019-03-18T00:03:32.827Z,79.58
2019-03-18T00:04:32.855Z,79.74
2019-03-18T00:05:32.805Z,79.58
2019-03-18T00:06:32.794Z,79.68
2019-03-18T00:07:32.784Z,79.47
2019-03-18T00:08:32.773Z,79.68
2019-03-18T00:09:32.770Z,79.47
2019-03-18T00:10:32.778Z,79.37
2019-03-18T00:11:32.743Z,79.27
2019-03-18T00:12:32.732Z,79.37
2019-03-18T00:13:32.726Z,79.37
2019-03-18T00:14:32.709Z,79.37
2019-03-18T00:15:32.737Z,79.37
2019-03-18T00:16:32.693Z,79.37
2019-03-18T00:17:32.679Z,79.58
2019-03-18T00:18:32.671Z,79.58
2019-03-18T00:19:32.655Z,79.37
2019-03-18T00:20:32.645Z,79.37
2019-03-18T00:21:32.673Z,79.16
2019-03-18T00:22:32.625Z,78.96
2019-03-18T00:23:32.613Z,79.27
2019-03-18T00:24:32.601Z,78.92
2019-03-18T00:25:32.592Z,79.27
2019-03-18T00:26:32.580Z,78.85
2019-03-18T00:27:32.611Z,79.06
2019-03-18T00:28:32.560Z,79.27
2019-03-18T00:29:32.555Z,78.96
2019-03-18T00:30:32.626Z,78.75
2019-03-18T00:31:32.527Z,78.96
2019-03-18T00:32:32.515Z,79.16
2019-03-18T00:33:32.532Z,78.96
2019-03-18T00:34:32.495Z,78.85
2019-03-18T00:35:32.486Z,79.16
2019-03-18T00:36:32.473Z,79.27
2019-03-18T00:37:32.464Z,79.47
2019-03-18T00:38:32.489Z,79.27
2019-03-18T00:39:32.443Z,79.37
2019-03-18T00:40:32.435Z,79.27
2019-03-18T00:41:32.423Z,79.27
2019-03-18T00:42:32.411Z,79.20
2019-03-18T00:43:32.402Z,79.30
2019-03-18T00:44:32.424Z,79.47
2019-03-18T00:45:32.379Z,79.68
2019-03-18T00:46:32.367Z,79.71
2019-03-18T00:47:32.353Z,80.02
2019-03-18T00:48:32.345Z,79.61
2019-03-18T00:49:32.333Z,80.02
2019-03-18T00:50:32.348Z,79.92
2019-03-18T00:51:32.310Z,80.44
2019-03-18T00:52:32.298Z,80.85
2019-03-18T00:53:32.292Z,80.23
2019-03-18T00:54:32.277Z,80.85
2019-03-18T00:55:32.305Z,80.96
2019-03-18T00:56:32.257Z,80.68
2019-03-18T00:57:32.245Z,80.99
2019-03-18T00:58:32.236Z,81.20
2019-03-18T00:59:32.224Z,81.62
2019-03-18T01:00:32.213Z,81.30
2019-03-18T01:01:32.241Z,81.30
2019-03-18T01:02:32.192Z,81.20
2019-03-18T01:03:32.181Z,81.20
2019-03-18T01:04:32.173Z,81.82
2019-03-18T01:05:32.159Z,81.62
2019-03-18T01:06:32.148Z,81.66
2019-03-18T01:07:32.163Z,81.87
2019-03-18T01:08:32.131Z,81.20
2019-03-18T01:09:32.117Z,81.62
2019-03-18T01:10:32.103Z,81.72
2019-03-18T01:11:32.094Z,81.51
2019-03-18T01:12:32.122Z,81.66
2019-03-18T01:13:32.073Z,81.62
2019-03-18T01:14:32.061Z,81.66
2019-03-18T01:15:32.051Z,81.76
2019-03-18T01:16:32.042Z,81.97
2019-03-18T01:17:32.030Z,81.56
2019-03-18T01:18:32.055Z,81.62
2019-03-18T01:19:32.031Z,81.87
2019-03-18T01:20:31.995Z,81.76
2019-03-18T01:21:31.986Z,81.56
2019-03-18T01:22:31.979Z,81.87
2019-03-18T01:23:31.963Z,81.76
2019-03-18T01:24:31.992Z,81.66
2019-03-18T01:25:31.942Z,81.35
2019-03-18T01:26:31.930Z,82.18
2019-03-18T01:27:31.920Z,81.97
2019-03-18T01:28:31.909Z,81.56
2019-03-18T01:29:31.899Z,81.97
2019-03-18T01:30:31.915Z,81.45
2019-03-18T01:31:31.876Z,81.97
2019-03-18T01:32:31.868Z,82.18
2019-03-18T01:33:31.855Z,81.97
2019-03-18T01:34:31.857Z,81.97
2019-03-18T01:35:31.871Z,81.70
2019-03-18T01:36:31.822Z,82.28
2019-03-18T01:37:31.816Z,81.97
2019-03-18T01:38:31.801Z,81.97
2019-03-18T01:39:31.790Z,81.35
2019-03-18T01:40:31.780Z,81.97
2019-03-18T01:41:31.804Z,81.45
2019-03-18T01:42:31.759Z,81.35
2019-03-18T01:43:31.747Z,81.76
2019-03-18T01:44:31.737Z,81.66
2019-03-18T01:45:40.604Z,81.76
2019-03-18T01:46:32.750Z,81.66
2019-03-18T01:47:31.705Z,81.97
2019-03-18T01:48:31.694Z,81.66
2019-03-18T01:49:31.684Z,81.76
2019-03-18T01:50:31.671Z,81.66
2019-03-18T01:51:31.661Z,81.97
2019-03-18T01:52:31.679Z,81.80
2019-03-18T01:53:31.639Z,81.59
2019-03-18T01:54:31.630Z,81.45
2019-03-18T01:55:31.618Z,82.28
2019-03-18T01:56:31.607Z,82.21
2019-03-18T01:57:31.633Z,81.66
2019-03-18T01:58:31.587Z,81.90
2019-03-18T01:59:31.574Z,81.87
2019-03-18T02:00:31.565Z,82.11
2019-03-18T02:01:31.552Z,81.49
2019-03-18T02:02:31.541Z,81.70
2019-03-18T02:03:31.569Z,81.70
2019-03-18T02:04:31.520Z,82.01
2019-03-18T02:05:31.509Z,82.42
2019-03-18T02:06:31.512Z,82.01
2019-03-18T02:07:31.489Z,82.32
2019-03-18T02:08:31.475Z,82.32
2019-03-18T02:09:31.491Z,81.80
2019-03-18T02:10:31.455Z,81.90
2019-03-18T02:11:31.444Z,82.01
2019-03-18T02:12:31.432Z,82.01
2019-03-18T02:13:31.424Z,81.80
2019-03-18T02:14:31.447Z,82.01
2019-03-18T02:15:31.404Z,82.11
2019-03-18T02:16:31.394Z,82.15
2019-03-18T02:17:31.380Z,82.11
2019-03-18T02:18:31.369Z,81.28
2019-03-18T02:19:31.359Z,81.59
2019-03-18T02:20:31.386Z,82.35
2019-03-18T02:21:31.338Z,82.11
2019-03-18T02:22:31.325Z,81.59
2019-03-18T02:23:31.313Z,81.73
2019-03-18T02:24:31.303Z,81.70
2019-03-18T02:25:31.295Z,81.63
2019-03-18T02:26:31.320Z,81.80
2019-03-18T02:27:31.270Z,81.84
2019-03-18T02:28:31.260Z,81.59
2019-03-18T02:29:31.250Z,82.32
2019-03-18T02:30:31.245Z,82.35
2019-03-18T02:31:31.230Z,82.01
2019-03-18T02:32:31.241Z,82.01
2019-03-18T02:33:31.206Z,81.80
2019-03-18T02:34:31.192Z,81.42
2019-03-18T02:35:31.189Z,82.42
2019-03-18T02:36:31.174Z,82.35
2019-03-18T02:37:31.199Z,81.63
2019-03-18T02:38:31.151Z,81.80
2019-03-18T02:39:31.139Z,81.80
2019-03-18T02:40:31.130Z,81.73
2019-03-18T02:41:31.118Z,81.63
2019-03-18T02:42:31.107Z,81.73
2019-03-18T02:43:31.133Z,81.84
2019-03-18T02:44:31.088Z,81.52
2019-03-18T02:45:31.073Z,81.49
2019-03-18T02:46:31.061Z,80.87
2019-03-18T02:47:31.050Z,81.32
2019-03-18T02:48:31.040Z,81.07
2019-03-18T02:49:31.055Z,80.87
2019-03-18T02:50:31.020Z,81.07
2019-03-18T02:51:31.011Z,80.90
2019-03-18T02:52:31.001Z,81.18
2019-03-18T02:53:30.986Z,81.21
2019-03-18T02:54:31.012Z,80.76
2019-03-18T02:55:31.023Z,81.18
2019-03-18T02:56:30.954Z,80.76
2019-03-18T02:57:30.953Z,80.87
2019-03-18T02:58:30.929Z,80.49
2019-03-18T02:59:30.919Z,80.35
2019-03-18T03:00:30.945Z,80.18
2019-03-18T03:01:30.896Z,80.66
2019-03-18T03:02:30.886Z,80.38
2019-03-18T03:03:30.873Z,80.55
2019-03-18T03:04:30.883Z,80.07
2019-03-18T03:05:30.850Z,80.49
2019-03-18T03:06:30.870Z,79.97
2019-03-18T03:07:30.833Z,80.07
2019-03-18T03:08:30.823Z,79.72
2019-03-18T03:09:30.809Z,80.04
2019-03-18T03:10:30.796Z,79.86
2019-03-18T03:11:34.139Z,79.72
2019-03-18T03:12:30.812Z,79.51
2019-03-18T03:13:30.763Z,79.61
2019-03-18T03:14:30.754Z,79.30
2019-03-18T03:15:30.742Z,79.51
2019-03-18T03:16:30.733Z,79.20
2019-03-18T03:17:30.722Z,79.41
2019-03-18T03:18:30.746Z,79.30
2019-03-18T03:19:30.696Z,79.30
2019-03-18T03:20:30.685Z,79.20
2019-03-18T03:21:30.681Z,79.51
2019-03-18T03:22:30.666Z,79.51
2019-03-18T03:23:30.654Z,79.20
2019-03-18T03:24:30.678Z,78.99
2019-03-18T03:25:30.631Z,79.10
2019-03-18T03:26:30.627Z,78.78
2019-03-18T03:27:30.610Z,78.89
2019-03-18T03:28:30.597Z,78.27
2019-03-18T03:29:30.622Z,78.68
2019-03-18T03:30:30.587Z,78.37
2019-03-18T03:31:30.582Z,78.47
2019-03-18T03:32:30.554Z,78.47
2019-03-18T03:33:30.544Z,78.23
2019-03-18T03:34:30.540Z,78.37
2019-03-18T03:35:30.552Z,78.06
2019-03-18T03:36:30.509Z,78.37
2019-03-18T03:37:30.506Z,78.23
2019-03-18T03:38:30.487Z,78.16
2019-03-18T03:39:30.520Z,78.47
2019-03-18T03:40:30.466Z,78.37
2019-03-18T03:41:30.453Z,78.55
2019-03-18T03:42:30.445Z,78.78
2019-03-18T03:43:30.431Z,78.58
2019-03-18T03:44:30.421Z,78.89
2019-03-18T03:45:30.435Z,78.89
2019-03-18T03:46:42.442Z,79.34
2019-03-18T03:47:31.393Z,79.20
2019-03-18T03:48:30.377Z,78.99
2019-03-18T03:49:30.400Z,78.89
2019-03-18T03:50:30.359Z,79.10
2019-03-18T03:51:30.344Z,79.34
2019-03-18T03:52:30.334Z,79.51
2019-03-18T03:53:31.095Z,79.20
2019-03-18T03:54:30.311Z,79.44
2019-03-18T03:55:30.326Z,79.41
2019-03-18T03:56:30.292Z,78.99
2019-03-18T03:57:30.278Z,79.30
2019-03-18T03:58:30.267Z,78.89
2019-03-18T03:59:30.292Z,79.20
2019-03-18T04:00:30.245Z,79.10
2019-03-18T04:01:30.234Z,79.30
2019-03-18T04:02:30.224Z,79.10
2019-03-18T04:03:38.358Z,78.78
2019-03-18T04:04:31.225Z,78.68
2019-03-18T04:05:30.202Z,78.68
2019-03-18T04:06:30.178Z,78.68
2019-03-18T04:07:30.168Z,78.99
2019-03-18T04:08:30.161Z,78.99
2019-03-18T04:09:30.182Z,78.78
2019-03-18T04:10:30.146Z,78.58
2019-03-18T04:11:30.124Z,78.68
2019-03-18T04:12:30.115Z,78.89
2019-03-18T04:13:30.107Z,78.37
2019-03-18T04:14:30.094Z,78.47
2019-03-18T04:15:30.110Z,78.47
2019-03-18T04:16:30.073Z,78.37
2019-03-18T04:17:30.063Z,78.37
2019-03-18T04:18:30.049Z,78.55
2019-03-18T04:19:30.089Z,78.27
2019-03-18T04:20:30.025Z,78.16
2019-03-18T04:21:30.020Z,78.37
2019-03-18T04:22:30.006Z,78.27
2019-03-18T04:23:29.994Z,78.16
2019-03-18T04:24:29.985Z,78.03
2019-03-18T04:25:29.996Z,77.33
2019-03-18T04:26:29.965Z,77.51
2019-03-18T04:27:29.970Z,77.82
2019-03-18T04:28:29.945Z,77.82
2019-03-18T04:29:29.965Z,77.61
2019-03-18T04:30:29.915Z,77.82
2019-03-18T04:31:29.916Z,77.61
2019-03-18T04:32:29.896Z,77.92
2019-03-18T04:33:29.884Z,78.06
2019-03-18T04:34:29.876Z,77.82
2019-03-18T04:35:29.890Z,77.92
2019-03-18T04:36:29.855Z,78.03
2019-03-18T04:37:29.842Z,77.82
2019-03-18T04:38:29.835Z,77.82
2019-03-18T04:39:29.908Z,77.72
2019-03-18T04:40:29.807Z,77.82
2019-03-18T04:41:29.799Z,77.72
2019-03-18T04:42:29.784Z,78.03
2019-03-18T04:43:29.774Z,77.82
2019-03-18T04:44:29.762Z,77.82
2019-03-18T04:45:29.778Z,78.13
2019-03-18T04:46:29.762Z,77.82
2019-03-18T04:47:29.731Z,78.13
2019-03-18T04:48:29.718Z,77.92
2019-03-18T04:49:29.749Z,77.92
2019-03-18T04:50:29.697Z,77.82
2019-03-18T04:51:29.687Z,78.03
2019-03-18T04:52:29.675Z,77.61
2019-03-18T04:53:29.664Z,77.61
2019-03-18T04:54:29.653Z,77.82
2019-03-18T04:55:29.689Z,77.72
2019-03-18T04:56:29.632Z,77.92
2019-03-18T04:57:29.621Z,77.72
2019-03-18T04:58:29.611Z,78.13
2019-03-18T04:59:29.635Z,77.92
2019-03-18T05:00:29.587Z,77.99
2019-03-18T05:01:29.576Z,78.09
2019-03-18T05:02:29.565Z,77.92
2019-03-18T05:03:29.555Z,77.92
2019-03-18T05:04:29.544Z,78.30
2019-03-18T05:05:29.559Z,78.20
2019-03-18T05:06:29.531Z,78.30
2019-03-18T05:07:29.512Z,77.68
2019-03-18T05:08:29.501Z,78.23
2019-03-18T05:09:29.526Z,78.20
2019-03-18T05:10:29.478Z,78.20
2019-03-18T05:11:29.476Z,78.30
2019-03-18T05:12:29.458Z,78.20
2019-03-18T05:13:29.444Z,77.78
2019-03-18T05:14:29.435Z,77.89
2019-03-18T05:15:29.453Z,77.89
2019-03-18T05:16:29.413Z,77.89
2019-03-18T05:17:29.401Z,77.89
2019-03-18T05:18:29.391Z,77.26
2019-03-18T05:19:29.431Z,77.47
2019-03-18T05:20:29.371Z,77.47
2019-03-18T05:21:29.358Z,76.85
2019-03-18T05:22:29.347Z,76.85
2019-03-18T05:23:29.337Z,76.95
2019-03-18T05:24:29.328Z,76.75
2019-03-18T05:25:29.340Z,77.26
2019-03-18T05:26:29.304Z,76.75
2019-03-18T05:27:29.295Z,77.06
2019-03-18T05:28:29.283Z,77.37
2019-03-18T05:29:29.308Z,77.06
2019-03-18T05:30:29.261Z,76.75
2019-03-18T05:31:29.249Z,77.26
2019-03-18T05:32:29.238Z,77.37
2019-03-18T05:33:29.230Z,77.37
2019-03-18T05:34:29.219Z,76.75
2019-03-18T05:35:29.232Z,76.95
2019-03-18T05:36:29.199Z,76.75
2019-03-18T05:37:29.186Z,76.54
2019-03-18T05:38:29.184Z,77.16
2019-03-18T05:39:29.199Z,76.64
2019-03-18T05:40:29.156Z,77.26
2019-03-18T05:41:29.142Z,76.54
2019-03-18T05:42:29.131Z,77.06
2019-03-18T05:43:29.122Z,76.85
2019-03-18T05:44:29.110Z,76.75
2019-03-18T05:45:29.124Z,77.06
2019-03-18T05:46:29.088Z,77.06
2019-03-18T05:47:38.632Z,76.64
2019-03-18T05:48:30.065Z,77.47
2019-03-18T05:49:29.093Z,76.95
2019-03-18T05:50:29.047Z,76.95
2019-03-18T05:51:29.034Z,77.37
2019-03-18T05:52:29.022Z,76.85
2019-03-18T05:53:29.013Z,76.85
2019-03-18T05:54:29.001Z,76.85
2019-03-18T05:55:29.015Z,77.37
2019-03-18T05:56:28.980Z,77.58
2019-03-18T05:57:28.971Z,77.26
2019-03-18T05:58:28.958Z,77.68
2019-03-18T05:59:28.983Z,77.58
2019-03-18T06:00:28.937Z,77.68
2019-03-18T06:01:28.935Z,77.89
2019-03-18T06:02:28.936Z,77.47
2019-03-18T06:03:28.905Z,77.47
2019-03-18T06:04:28.898Z,77.02
2019-03-18T06:05:28.912Z,76.85
2019-03-18T06:06:28.871Z,77.06
2019-03-18T06:07:28.861Z,77.12
2019-03-18T06:08:28.853Z,77.02
2019-03-18T06:09:28.876Z,77.12
2019-03-18T06:10:28.828Z,76.81
2019-03-18T06:11:28.817Z,76.81
2019-03-18T06:12:28.806Z,76.61
2019-03-18T06:13:28.796Z,76.81
2019-03-18T06:14:28.785Z,76.71
2019-03-18T06:15:28.799Z,76.29
2019-03-18T06:16:28.763Z,76.50
2019-03-18T06:17:28.754Z,76.40
2019-03-18T06:18:28.743Z,76.61
2019-03-18T06:19:28.767Z,76.29
2019-03-18T06:20:28.722Z,76.40
2019-03-18T06:21:28.710Z,76.81
2019-03-18T06:22:28.698Z,76.61
2019-03-18T06:23:28.696Z,77.12
2019-03-18T06:24:28.677Z,76.29
2019-03-18T06:25:28.706Z,76.40
2019-03-18T06:26:28.658Z,76.40
2019-03-18T06:27:28.647Z,76.50
2019-03-18T06:28:28.634Z,76.40
2019-03-18T06:29:28.626Z,76.50
2019-03-18T06:30:28.611Z,76.40
2019-03-18T06:31:28.636Z,76.50
2019-03-18T06:32:28.588Z,76.71
2019-03-18T06:33:28.579Z,76.40
2019-03-18T06:34:28.569Z,76.36
2019-03-18T06:35:28.586Z,76.40
2019-03-18T06:36:28.571Z,76.61
2019-03-18T06:37:28.536Z,76.50
2019-03-18T06:38:28.528Z,76.40
2019-03-18T06:39:28.514Z,76.61
2019-03-18T06:40:28.503Z,77.23
2019-03-18T06:41:28.518Z,76.61
2019-03-18T06:42:28.481Z,76.92
2019-03-18T06:43:28.471Z,76.92
2019-03-18T06:44:28.459Z,77.02
2019-03-18T06:45:28.455Z,77.54
2019-03-18T06:46:28.497Z,77.54
2019-03-18T06:47:28.428Z,77.44
2019-03-18T06:48:28.415Z,77.44
2019-03-18T06:49:28.405Z,77.64
2019-03-18T06:50:28.395Z,77.85
2019-03-18T06:51:28.387Z,77.44
2019-03-18T06:52:28.396Z,77.44
2019-03-18T06:53:28.361Z,77.54
2019-03-18T06:54:28.351Z,77.54
2019-03-18T06:55:28.341Z,77.64
2019-03-18T06:56:28.329Z,77.64
2019-03-18T06:57:28.355Z,76.71
2019-03-18T06:58:28.309Z,76.92
2019-03-18T06:59:28.296Z,76.61
2019-03-18T07:00:28.286Z,76.57
2019-03-18T07:01:28.276Z,76.40
2019-03-18T07:02:28.263Z,76.26
2019-03-18T07:03:28.277Z,76.15
2019-03-18T07:04:28.245Z,76.05
2019-03-18T07:05:28.231Z,76.15
2019-03-18T07:06:28.220Z,76.05
2019-03-18T07:07:28.210Z,75.74
2019-03-18T07:08:28.225Z,76.05
2019-03-18T07:09:28.189Z,75.50
2019-03-18T07:10:28.179Z,74.46
2019-03-18T07:11:28.171Z,74.77
2019-03-18T07:12:28.158Z,74.88
2019-03-18T07:13:28.181Z,74.84
2019-03-18T07:14:28.132Z,74.46
2019-03-18T07:15:28.122Z,74.98
2019-03-18T07:16:28.111Z,74.32
2019-03-18T07:17:28.100Z,74.15
2019-03-18T07:18:28.089Z,74.36
2019-03-18T07:19:28.105Z,73.84
2019-03-18T07:20:28.069Z,73.29
2019-03-18T07:21:28.061Z,73.81
2019-03-18T07:22:28.047Z,73.84
2019-03-18T07:23:28.036Z,74.05
2019-03-18T07:24:28.061Z,73.81
2019-03-18T07:25:28.018Z,73.71
2019-03-18T07:26:28.005Z,72.88
2019-03-18T07:27:27.991Z,73.74
2019-03-18T07:28:27.983Z,74.02
2019-03-18T07:29:27.972Z,74.22
2019-03-18T07:30:27.985Z,74.02
2019-03-18T07:31:27.951Z,73.81
2019-03-18T07:32:27.947Z,72.88
2019-03-18T07:33:27.931Z,73.29
2019-03-18T07:34:27.921Z,72.98
2019-03-18T07:35:27.941Z,73.15
2019-03-18T07:36:27.896Z,73.25
2019-03-18T07:37:27.890Z,73.46
2019-03-18T07:38:27.875Z,73.25
2019-03-18T07:39:27.867Z,73.05
2019-03-18T07:40:27.891Z,72.74
2019-03-18T07:41:27.847Z,72.22
2019-03-18T07:42:27.832Z,72.85
2019-03-18T07:43:27.824Z,72.50
2019-03-18T07:44:27.813Z,72.60
2019-03-18T07:45:27.800Z,71.81
2019-03-18T07:46:27.826Z,71.67
2019-03-18T07:47:27.780Z,71.67
2019-03-18T07:48:31.391Z,71.26
2019-03-18T07:49:27.756Z,71.26
2019-03-18T07:50:27.745Z,71.78
2019-03-18T07:51:27.761Z,70.84
2019-03-18T07:52:27.724Z,71.05
2019-03-18T07:53:27.726Z,71.22
2019-03-18T07:54:32.699Z,71.26
2019-03-18T07:55:28.693Z,70.43
2019-03-18T07:56:27.718Z,70.50
2019-03-18T07:57:27.669Z,70.43
2019-03-18T07:58:27.659Z,71.02
2019-03-18T07:59:27.651Z,70.29
2019-03-18T08:00:27.635Z,70.19
2019-03-18T08:01:27.628Z,70.19
2019-03-18T08:02:27.637Z,70.29
2019-03-18T08:03:27.602Z,70.19
2019-03-18T08:04:36.686Z,70.09
2019-03-18T08:05:28.578Z,70.19
2019-03-18T08:06:27.567Z,69.98
2019-03-18T08:07:27.582Z,69.88
2019-03-18T08:08:27.637Z,69.98
2019-03-18T08:09:27.536Z,69.98
2019-03-18T08:10:27.525Z,69.98
2019-03-18T08:11:27.512Z,69.98
2019-03-18T08:12:27.536Z,70.19
2019-03-18T08:13:27.491Z,69.43
2019-03-18T08:14:27.483Z,70.37
2019-03-18T08:15:27.468Z,70.06
2019-03-18T08:16:27.456Z,69.54
2019-03-18T08:17:27.446Z,70.06
2019-03-18T08:18:27.461Z,69.74
2019-03-18T08:19:27.422Z,69.95
2019-03-18T08:20:27.411Z,68.92
2019-03-18T08:21:27.401Z,68.82
2019-03-18T08:22:27.390Z,69.33
2019-03-18T08:23:27.407Z,69.23
2019-03-18T08:24:27.367Z,69.33
2019-03-18T08:25:27.356Z,69.09
2019-03-18T08:26:27.430Z,69.20
2019-03-18T08:27:27.334Z,68.99
2019-03-18T08:28:27.361Z,68.99
2019-03-18T08:29:27.313Z,68.68
2019-03-18T08:30:27.301Z,68.88
2019-03-18T08:31:27.292Z,68.88
2019-03-18T08:32:27.280Z,68.78
2019-03-18T08:33:27.269Z,68.58
2019-03-18T08:34:27.283Z,68.37
2019-03-18T08:35:27.247Z,68.68
2019-03-18T08:36:27.238Z,68.37
2019-03-18T08:37:27.230Z,68.48
2019-03-18T08:38:27.215Z,68.27
2019-03-18T08:39:27.241Z,68.34
2019-03-18T08:40:27.195Z,68.34
2019-03-18T08:41:27.185Z,68.03
2019-03-18T08:42:27.181Z,67.82
2019-03-18T08:43:27.162Z,68.27
2019-03-18T08:44:27.155Z,67.82
2019-03-18T08:45:27.166Z,68.34
2019-03-18T08:46:27.131Z,68.03
2019-03-18T08:47:27.119Z,67.93
2019-03-18T08:48:27.108Z,67.61
2019-03-18T08:49:27.101Z,67.30
2019-03-18T08:50:27.110Z,66.89
2019-03-18T08:51:27.076Z,66.86
2019-03-18T08:52:27.066Z,67.30
2019-03-18T08:53:27.056Z,67.30
2019-03-18T08:54:27.045Z,67.51
2019-03-18T08:55:28.154Z,67.30
2019-03-18T08:56:29.579Z,67.51
2019-03-18T08:57:27.012Z,67.21
2019-03-18T08:58:27.001Z,67.30
2019-03-18T08:59:26.990Z,67.51
2019-03-18T09:00:26.979Z,67.30
2019-03-18T09:01:26.994Z,67.38
2019-03-18T09:02:26.960Z,67.38
2019-03-18T09:03:26.955Z,66.76
2019-03-18T09:04:26.939Z,66.76
2019-03-18T09:05:26.929Z,66.89
2019-03-18T09:06:30.095Z,67.17
2019-03-18T09:07:26.905Z,67.38
2019-03-18T09:08:26.894Z,66.69
2019-03-18T09:09:26.883Z,67.51
2019-03-18T09:10:26.872Z,67.27
2019-03-18T09:11:26.861Z,67.17
2019-03-18T09:12:26.879Z,67.27
2019-03-18T09:13:26.840Z,67.27
2019-03-18T09:14:26.828Z,67.07
2019-03-18T09:15:26.823Z,66.86
2019-03-18T09:16:26.811Z,66.97
2019-03-18T09:17:26.821Z,67.03
2019-03-18T09:18:26.784Z,67.27
2019-03-18T09:19:26.774Z,65.39
2019-03-18T09:20:26.767Z,65.59
2019-03-18T09:21:26.754Z,65.46
2019-03-18T09:22:26.767Z,65.46
2019-03-18T09:23:26.732Z,65.05
2019-03-18T09:24:26.727Z,65.15
2019-03-18T09:25:26.712Z,65.25
2019-03-18T09:26:26.702Z,65.15
2019-03-18T09:27:26.727Z,65.77
2019-03-18T09:28:26.678Z,65.46
2019-03-18T09:29:26.669Z,65.15
2019-03-18T09:30:26.656Z,64.50
2019-03-18T09:31:26.726Z,64.92
2019-03-18T09:32:26.636Z,64.61
2019-03-18T09:33:26.652Z,64.92
2019-03-18T09:34:26.624Z,64.27
2019-03-18T09:35:26.601Z,64.06
2019-03-18T09:36:26.588Z,63.96
2019-03-18T09:37:26.579Z,63.24
2019-03-18T09:38:26.594Z,63.34
2019-03-18T09:39:26.557Z,63.54
2019-03-18T09:40:29.156Z,63.13
2019-03-18T09:41:26.534Z,63.45
2019-03-18T09:42:26.529Z,63.52
2019-03-18T09:43:26.550Z,63.07
2019-03-18T09:44:26.501Z,62.87
2019-03-18T09:45:26.491Z,63.42
2019-03-18T09:46:26.484Z,63.00
2019-03-18T09:47:26.471Z,63.42
2019-03-18T09:48:26.458Z,63.31
2019-03-18T09:49:26.472Z,63.52
2019-03-18T09:50:26.437Z,63.62
2019-03-18T09:51:26.427Z,63.42
2019-03-18T09:52:26.415Z,63.10
2019-03-18T09:53:26.408Z,63.45
2019-03-18T09:54:26.435Z,63.96
2019-03-18T09:55:26.386Z,63.34
2019-03-18T09:56:26.373Z,63.99
2019-03-18T09:57:26.695Z,64.92
2019-03-18T09:58:26.351Z,64.47
2019-03-18T09:59:26.342Z,64.61
2019-03-18T10:00:26.354Z,64.50
2019-03-18T10:01:26.317Z,64.92
2019-03-18T10:02:26.308Z,65.02
2019-03-18T10:03:26.297Z,64.29
2019-03-18T10:04:26.283Z,64.81
2019-03-18T10:05:26.299Z,64.71
2019-03-18T10:06:26.265Z,65.22
2019-03-18T10:07:26.252Z,65.74
2019-03-18T10:08:26.244Z,65.74
2019-03-18T10:09:26.229Z,64.71
2019-03-18T10:10:26.257Z,64.61
2019-03-18T10:11:26.206Z,64.81
2019-03-18T10:12:26.195Z,65.12
2019-03-18T10:13:26.185Z,65.02
2019-03-18T10:14:26.174Z,65.19
2019-03-18T10:15:26.162Z,65.12
2019-03-18T10:16:26.175Z,64.40
2019-03-18T10:17:26.139Z,64.37
2019-03-18T10:18:33.680Z,64.71
2019-03-18T10:19:33.442Z,64.50
2019-03-18T10:20:27.104Z,65.09
2019-03-18T10:21:26.133Z,65.19
2019-03-18T10:22:26.084Z,64.92
2019-03-18T10:23:26.073Z,65.02
2019-03-18T10:24:26.067Z,65.43
2019-03-18T10:25:26.053Z,65.64
2019-03-18T10:26:26.039Z,64.92
2019-03-18T10:27:26.059Z,64.89
2019-03-18T10:28:26.017Z,64.78
2019-03-18T10:29:26.008Z,63.62
2019-03-18T10:30:25.998Z,62.97
2019-03-18T10:31:25.986Z,62.97
2019-03-18T10:32:25.997Z,63.39
2019-03-18T10:33:25.961Z,63.28
2019-03-18T10:34:25.953Z,62.35
2019-03-18T10:35:25.943Z,62.77
2019-03-18T10:36:25.931Z,62.97
2019-03-18T10:37:25.946Z,63.39
2019-03-18T10:38:25.915Z,62.84
2019-03-18T10:39:25.899Z,62.95
2019-03-18T10:40:25.889Z,62.33
2019-03-18T10:41:25.877Z,62.05
2019-03-18T10:42:25.903Z,62.12
2019-03-18T10:43:25.874Z,62.74
2019-03-18T10:44:25.845Z,62.12
2019-03-18T10:45:26.250Z,61.68
2019-03-18T10:46:26.415Z,61.51
2019-03-18T10:47:25.812Z,62.12
2019-03-18T10:48:25.826Z,61.47
2019-03-18T10:49:25.790Z,61.58
2019-03-18T10:50:25.780Z,61.58
2019-03-18T10:51:25.766Z,62.09
2019-03-18T10:52:25.798Z,61.51
2019-03-18T10:53:25.770Z,62.84
2019-03-18T10:54:30.950Z,62.77
2019-03-18T10:55:26.729Z,62.97
2019-03-18T10:56:25.713Z,62.56
2019-03-18T10:57:25.704Z,62.77
2019-03-18T10:58:25.715Z,62.56
2019-03-18T10:59:25.680Z,62.63
2019-03-18T11:00:25.671Z,62.74
2019-03-18T11:01:25.664Z,61.30
2019-03-18T11:02:25.650Z,61.71
2019-03-18T11:03:25.670Z,61.91
2019-03-18T11:04:25.637Z,61.30
2019-03-18T11:05:25.614Z,61.30
2019-03-18T11:06:25.602Z,62.05
2019-03-18T11:07:25.592Z,61.51
2019-03-18T11:08:25.581Z,61.22
2019-03-18T11:09:25.595Z,61.91
2019-03-18T11:10:25.559Z,60.96
2019-03-18T11:11:25.546Z,61.07
2019-03-18T11:12:25.540Z,60.63
2019-03-18T11:13:25.539Z,60.83
2019-03-18T11:14:25.541Z,60.42
2019-03-18T11:15:25.503Z,59.83
2019-03-18T11:16:25.491Z,60.65
2019-03-18T11:17:25.479Z,60.65
2019-03-18T11:18:25.484Z,60.55
2019-03-18T11:19:25.494Z,60.68
2019-03-18T11:20:25.446Z,61.19
2019-03-18T11:21:25.435Z,60.78
2019-03-18T11:22:25.422Z,61.61
2019-03-18T11:23:25.415Z,61.94
2019-03-18T11:24:25.400Z,61.81
2019-03-18T11:25:25.416Z,62.43
2019-03-18T11:26:25.381Z,62.33
2019-03-18T11:27:25.368Z,62.74
2019-03-18T11:28:25.357Z,62.84
2019-03-18T11:29:25.349Z,62.30
2019-03-18T11:30:25.368Z,62.12
2019-03-18T11:31:25.325Z,62.63
2019-03-18T11:32:25.312Z,63.15
2019-03-18T11:33:25.301Z,62.95
2019-03-18T11:34:25.291Z,63.39
2019-03-18T11:35:25.579Z,63.18
2019-03-18T11:36:25.269Z,63.90
2019-03-18T11:37:25.260Z,63.39
2019-03-18T11:38:25.249Z,63.56
2019-03-18T11:39:25.234Z,60.57
2019-03-18T11:40:25.231Z,60.39
2019-03-18T11:41:25.242Z,61.11
2019-03-18T11:42:25.206Z,61.55
2019-03-18T11:43:25.190Z,61.44
2019-03-18T11:44:25.197Z,61.96
2019-03-18T11:45:25.169Z,60.73
2019-03-18T11:46:25.232Z,60.65
2019-03-18T11:47:25.146Z,60.75
2019-03-18T11:48:25.135Z,60.96
2019-03-18T11:49:25.127Z,61.17
2019-03-18T11:50:25.119Z,61.04
2019-03-18T11:51:25.101Z,61.35
2019-03-18T11:52:25.122Z,60.31
2019-03-18T11:53:25.083Z,59.59
2019-03-18T11:54:25.166Z,58.98
2019-03-18T11:55:25.058Z,57.78
2019-03-18T11:56:25.045Z,58.59
2019-03-18T11:57:25.057Z,58.80
2019-03-18T11:58:25.023Z,59.34
2019-03-18T11:59:25.022Z,59.52
2019-03-18T12:00:25.004Z,59.52
2019-03-18T12:01:24.989Z,58.98
2019-03-18T12:02:27.951Z,58.57
2019-03-18T12:03:24.969Z,58.57
2019-03-18T12:04:24.957Z,59.80
2019-03-18T12:05:24.946Z,59.29
2019-03-18T12:06:24.933Z,58.70
2019-03-18T12:07:24.924Z,58.87
2019-03-18T12:08:24.950Z,58.57
2019-03-18T12:09:24.901Z,58.47
2019-03-18T12:10:25.988Z,58.98
2019-03-18T12:11:24.882Z,57.93
2019-03-18T12:12:24.867Z,57.36
2019-03-18T12:13:24.894Z,54.59
2019-03-18T12:14:24.845Z,52.42
2019-03-18T12:15:24.837Z,49.37
2019-03-18T12:16:24.825Z,48.42
2019-03-18T12:17:24.812Z,47.79
2019-03-18T12:18:24.801Z,47.17
2019-03-18T12:19:24.832Z,46.55
2019-03-18T12:20:25.802Z,45.89
2019-03-18T12:21:24.771Z,45.26
2019-03-18T12:22:24.758Z,43.69
2019-03-18T12:23:24.751Z,43.08
2019-03-18T12:24:24.767Z,45.20
2019-03-18T12:25:24.730Z,46.56
2019-03-18T12:26:24.714Z,46.59
2019-03-18T12:27:24.703Z,48.75
2019-03-18T12:28:24.691Z,49.41
2019-03-18T12:29:24.709Z,47.79
2019-03-18T12:30:24.669Z,47.01
2019-03-18T12:31:24.658Z,46.48
2019-03-18T12:32:24.649Z,44.91
2019-03-18T12:33:24.637Z,45.34
2019-03-18T12:34:24.665Z,48.10
2019-03-18T12:35:24.644Z,49.38
2019-03-18T12:36:24.603Z,49.77
2019-03-18T12:37:24.599Z,48.71
2019-03-18T12:38:24.581Z,48.32
2019-03-18T12:39:24.980Z,45.75
2019-03-18T12:40:24.587Z,44.24
2019-03-18T12:41:24.548Z,46.32
2019-03-18T12:42:24.542Z,46.11
2019-03-18T12:43:24.531Z,48.11
2019-03-18T12:44:24.515Z,48.03
2019-03-18T12:45:24.541Z,50.02
2019-03-18T12:46:24.493Z,48.85
2019-03-18T12:47:24.493Z,50.10
2019-03-18T12:48:24.470Z,49.57
2019-03-18T12:49:24.460Z,50.00
2019-03-18T12:50:42.840Z,51.19
2019-03-18T12:51:25.468Z,52.47
2019-03-18T12:52:24.429Z,52.90